< < Back
Terminal Aerodrome Forecast


Current Version              Previous Versions:   1  2  3  4  5  6  7  8  9  

Terminal Aerodrome Forecast

605
FTUS42 KJAX 280340 AAA
TAFSSI
TAF AMD
KSSI 280340Z 2804/2824 27010KT P6SM SCT250=

Latest METAR

640
SAUS70 KWBC 290100 RRE
MTRSSI
METAR KSSI 290053Z AUTO 28004KT 10SM CLR 12/M01 A3019 RMK AO2 SLP222
T01171011


USA.gov is the U.S. government's official web portal to all federal, state and local government web resources and services.